createdAt,value
2023-02-28T12:38:34.488Z,87.34
2023-02-28T12:39:44.886Z,86.05
2023-02-28T12:40:34.434Z,85.28
2023-02-28T12:41:34.423Z,85.71
2023-02-28T12:42:34.385Z,84.72
2023-02-28T12:43:34.351Z,84.62
2023-02-28T12:44:34.316Z,84.24
2023-02-28T12:45:34.361Z,84.05
2023-02-28T12:46:34.376Z,83.15
2023-02-28T12:47:34.274Z,83.25
2023-02-28T12:48:34.246Z,83.95
2023-02-28T12:49:34.211Z,83.34
2023-02-28T12:50:34.196Z,83.76
2023-02-28T12:51:34.165Z,83.00
2023-02-28T12:52:34.145Z,82.24
2023-02-28T12:53:34.121Z,82.39
2023-02-28T12:54:34.089Z,82.58
2023-02-28T12:55:34.069Z,82.71
2023-02-28T12:56:34.067Z,82.95
2023-02-28T12:57:34.031Z,82.28
2023-02-28T12:58:34.023Z,81.43
2023-02-28T12:59:33.978Z,80.63
2023-02-28T13:00:33.960Z,80.86
2023-02-28T13:01:34.301Z,80.63
2023-02-28T13:02:34.025Z,80.82
2023-02-28T13:03:33.914Z,81.20
2023-02-28T13:04:33.881Z,81.06
2023-02-28T13:05:33.869Z,82.34
2023-02-28T13:06:33.855Z,82.95
2023-02-28T13:07:33.858Z,83.42
2023-02-28T13:08:33.811Z,82.48
2023-02-28T13:09:33.763Z,82.28
2023-02-28T13:10:33.748Z,82.09
2023-02-28T13:11:33.961Z,81.71
2023-02-28T13:12:33.727Z,81.43
2023-02-28T13:13:33.693Z,80.82
2023-02-28T13:14:33.704Z,80.86
2023-02-28T13:15:33.633Z,80.33
2023-02-28T13:16:35.207Z,80.52
2023-02-28T13:17:33.597Z,80.13
2023-02-28T13:18:33.620Z,79.24
2023-02-28T13:19:33.573Z,79.14
2023-02-28T13:20:33.562Z,78.86
2023-02-28T13:21:33.534Z,80.04
2023-02-28T13:22:33.501Z,80.36
2023-02-28T13:23:33.514Z,79.03
2023-02-28T13:24:33.462Z,78.23
2023-02-28T13:25:33.435Z,78.90
2023-02-28T13:26:33.498Z,79.38
2023-02-28T13:27:33.437Z,79.51
2023-02-28T13:28:33.402Z,78.75
2023-02-28T13:29:33.376Z,78.88
2023-02-28T13:30:33.393Z,77.74
2023-02-28T13:31:33.320Z,76.52
2023-02-28T13:32:33.324Z,77.00
2023-02-28T13:33:33.297Z,78.23
2023-02-28T13:34:33.301Z,77.85
2023-02-28T13:35:33.282Z,78.04
2023-02-28T13:36:33.250Z,78.37
2023-02-28T13:37:33.228Z,78.12
2023-02-28T13:38:33.196Z,78.25
2023-02-28T13:39:35.214Z,77.26
2023-02-28T13:40:33.171Z,76.65
2023-02-28T13:41:33.285Z,76.46
2023-02-28T13:42:33.115Z,77.70
2023-02-28T13:43:36.043Z,77.51
2023-02-28T13:44:33.100Z,77.03
2023-02-28T13:45:33.077Z,77.03
2023-02-28T13:46:33.102Z,78.22
2023-02-28T13:47:33.032Z,77.97
2023-02-28T13:48:33.007Z,76.82
2023-02-28T13:49:33.032Z,76.08
2023-02-28T13:50:32.979Z,76.75
2023-02-28T13:51:33.979Z,77.42
2023-02-28T13:52:32.941Z,77.66
2023-02-28T13:53:32.929Z,78.42
2023-02-28T13:54:32.937Z,78.71
2023-02-28T13:55:32.900Z,79.32
2023-02-28T13:56:32.882Z,79.03
2023-02-28T13:57:32.853Z,78.56
2023-02-28T13:58:32.853Z,79.32
2023-02-28T13:59:32.813Z,78.85
2023-02-28T14:00:41.682Z,78.61
2023-02-28T14:01:33.262Z,77.85
2023-02-28T14:02:32.744Z,78.90
2023-02-28T14:03:32.728Z,79.28
2023-02-28T14:04:33.704Z,79.24
2023-02-28T14:05:32.709Z,80.23
2023-02-28T14:06:32.896Z,80.19
2023-02-28T14:07:36.257Z,80.47
2023-02-28T14:08:32.636Z,80.76
2023-02-28T14:09:32.602Z,80.15
2023-02-28T14:10:32.629Z,81.05
2023-02-28T14:11:32.588Z,80.57
2023-02-28T14:12:32.555Z,80.29
2023-02-28T14:13:32.556Z,80.57
2023-02-28T14:14:32.548Z,80.13
2023-02-28T14:15:32.557Z,79.19
2023-02-28T14:16:32.561Z,78.99
2023-02-28T14:17:32.461Z,79.03
2023-02-28T14:18:32.478Z,78.42
2023-02-28T14:19:32.459Z,78.14
2023-02-28T14:20:32.438Z,78.71
2023-02-28T14:21:32.396Z,78.23
2023-02-28T14:22:32.376Z,77.85
2023-02-28T14:23:32.355Z,78.08
2023-02-28T14:24:32.365Z,78.12
2023-02-28T14:25:32.341Z,77.49
2023-02-28T14:26:32.325Z,75.55
2023-02-28T14:27:32.289Z,75.87
2023-02-28T14:28:32.277Z,75.11
2023-02-28T14:44:59.522Z,78.65
2023-02-28T14:45:59.512Z,77.64
2023-02-28T14:46:59.493Z,77.83
2023-02-28T14:47:59.452Z,76.50
2023-02-28T14:48:59.455Z,75.79
2023-02-28T14:49:59.426Z,75.99
2023-02-28T14:50:59.420Z,76.04
2023-02-28T14:51:59.388Z,77.05
2023-02-28T14:52:59.387Z,77.77
2023-02-28T14:53:59.356Z,79.30
2023-02-28T14:54:59.353Z,80.40
2023-02-28T14:55:59.303Z,80.68
